createdAt,value
2024-04-26T00:02:12.988Z,96.80
2024-04-26T00:04:43.542Z,96.90
2024-04-26T00:07:17.209Z,96.70
2024-04-26T00:10:33.409Z,97.00
2024-04-26T00:15:59.665Z,97.20
2024-04-26T00:18:34.668Z,97.30
2024-04-26T00:21:05.111Z,97.60
2024-04-26T00:23:35.205Z,97.70
2024-04-26T00:29:23.835Z,97.70
2024-04-26T00:31:55.256Z,97.70
2024-04-26T00:34:26.359Z,97.60
2024-04-26T00:36:57.086Z,97.70
2024-04-26T00:39:27.580Z,98.00
2024-04-26T00:44:47.347Z,97.90
2024-04-26T00:47:18.456Z,98.10
2024-04-26T00:49:56.053Z,98.30
2024-04-26T00:52:26.468Z,98.40
2024-04-26T00:54:57.387Z,98.70
2024-04-26T00:57:29.000Z,98.60
2024-04-26T01:00:05.839Z,98.80
2024-04-26T01:03:06.751Z,99.00
2024-04-26T01:05:37.054Z,99.20
2024-04-26T01:08:10.784Z,99.20
2024-04-26T01:10:43.629Z,99.90
2024-04-26T01:13:32.614Z,99.20
2024-04-26T01:16:07.091Z,99.30
2024-04-26T01:18:39.120Z,99.90
2024-04-26T01:21:17.426Z,99.40
2024-04-26T01:24:01.121Z,99.90
2024-04-26T01:30:27.552Z,99.90
2024-04-26T01:32:58.504Z,99.90
2024-04-26T01:35:29.261Z,99.90
2024-04-26T01:38:01.723Z,99.90
2024-04-26T01:40:45.924Z,99.90
2024-04-26T01:43:19.989Z,99.90
2024-04-26T01:46:08.818Z,99.90
2024-04-26T01:48:39.762Z,99.90
2024-04-26T01:54:37.464Z,99.90
2024-04-26T01:57:22.130Z,99.90
2024-04-26T02:00:17.999Z,99.90
2024-04-26T02:02:48.822Z,99.90
2024-04-26T02:05:20.535Z,99.90
2024-04-26T02:07:48.684Z,99.90
2024-04-26T02:10:36.765Z,99.90
2024-04-26T02:13:05.122Z,99.90
2024-04-26T02:15:36.350Z,99.90
2024-04-26T02:18:15.914Z,99.90
2024-04-26T02:20:53.799Z,99.90
2024-04-26T02:23:28.696Z,99.90
2024-04-26T02:26:25.482Z,99.90
2024-04-26T02:30:04.887Z,99.90
2024-04-26T02:39:30.553Z,99.90
2024-04-26T02:42:21.004Z,99.90
2024-04-26T02:45:05.172Z,99.90
2024-04-26T02:47:36.084Z,99.90
2024-04-26T02:50:14.436Z,99.90
2024-04-26T02:53:11.032Z,99.90
2024-04-26T02:56:07.016Z,99.90
2024-04-26T02:58:39.136Z,99.90
2024-04-26T03:01:09.734Z,99.90
2024-04-26T03:03:40.066Z,99.90
2024-04-26T03:06:43.794Z,99.90
2024-04-26T03:09:13.916Z,99.90
2024-04-26T03:11:44.343Z,99.90
2024-04-26T03:17:49.922Z,99.90
2024-04-26T03:20:21.038Z,99.90
2024-04-26T03:25:44.428Z,99.90
2024-04-26T03:28:27.360Z,99.90
2024-04-26T03:31:26.222Z,99.90
2024-04-26T03:33:59.450Z,99.90
2024-04-26T03:36:29.664Z,99.90
2024-04-26T03:42:43.456Z,99.90
2024-04-26T03:45:16.930Z,99.90
2024-04-26T03:47:51.482Z,99.90
2024-04-26T03:50:22.140Z,99.90
2024-04-26T03:55:45.160Z,99.90
2024-04-26T03:58:29.147Z,99.90
2024-04-26T04:00:59.427Z,99.90
2024-04-26T04:03:30.865Z,99.90
2024-04-26T04:06:39.807Z,99.90
2024-04-26T04:09:09.798Z,99.90
2024-04-26T04:12:07.918Z,99.90
2024-04-26T04:17:27.763Z,99.90
2024-04-26T04:19:58.375Z,99.90
2024-04-26T04:25:38.155Z,99.90
2024-04-26T04:28:29.799Z,99.90
2024-04-26T04:31:02.766Z,99.90
2024-04-26T04:33:36.538Z,99.90
2024-04-26T04:36:22.484Z,99.90
2024-04-26T04:38:53.970Z,99.90
2024-04-26T04:41:24.303Z,99.90
2024-04-26T04:44:04.094Z,99.90
2024-04-26T04:46:37.935Z,99.90
2024-04-26T04:52:11.034Z,99.90
2024-04-26T04:55:06.007Z,99.90
2024-04-26T04:57:40.715Z,99.90
2024-04-26T05:00:12.078Z,99.90
2024-04-26T05:03:22.015Z,99.90
2024-04-26T05:05:56.020Z,99.90
2024-04-26T05:08:33.210Z,99.90
2024-04-26T05:11:03.077Z,99.90
2024-04-26T05:13:34.117Z,99.90
2024-04-26T05:16:03.935Z,99.90
2024-04-26T05:19:11.561Z,99.90
2024-04-26T05:22:20.713Z,99.90
2024-04-26T05:25:01.399Z,99.90
2024-04-26T05:27:31.286Z,99.90
2024-04-26T05:30:01.803Z,99.90
2024-04-26T05:32:43.001Z,99.90
2024-04-26T05:35:13.103Z,99.90
2024-04-26T05:37:46.363Z,99.90
2024-04-26T05:40:47.813Z,99.90
2024-04-26T05:43:47.248Z,99.90
2024-04-26T05:46:17.479Z,99.90
2024-04-26T05:48:48.542Z,99.90
2024-04-26T05:51:52.025Z,99.90
2024-04-26T05:54:34.001Z,99.90
2024-04-26T05:57:04.268Z,99.90
2024-04-26T05:59:34.432Z,99.90
2024-04-26T06:02:06.309Z,99.90
2024-04-26T06:08:04.182Z,99.90
2024-04-26T06:13:33.739Z,99.90
2024-04-26T06:16:19.940Z,99.90
2024-04-26T06:18:54.364Z,99.90
2024-04-26T06:21:27.205Z,99.90
2024-04-26T06:23:59.567Z,99.90
2024-04-26T06:26:32.835Z,99.90
2024-04-26T06:32:06.504Z,99.90
2024-04-26T06:35:13.227Z,99.90
2024-04-26T06:40:27.289Z,99.90
2024-04-26T06:42:59.683Z,99.90
2024-04-26T06:45:30.307Z,99.90
2024-04-26T06:48:20.107Z,99.90
2024-04-26T06:50:52.430Z,99.90
2024-04-26T06:53:54.473Z,99.90
2024-04-26T06:56:24.275Z,99.90
2024-04-26T06:58:57.864Z,99.90
2024-04-26T07:01:28.062Z,99.90
2024-04-26T07:04:01.082Z,99.90
2024-04-26T07:06:31.333Z,99.90
2024-04-26T07:09:11.305Z,99.90
2024-04-26T07:11:42.447Z,99.90
2024-04-26T07:14:35.665Z,99.90
2024-04-26T07:17:06.083Z,99.90
2024-04-26T07:20:12.445Z,99.90
2024-04-26T07:22:53.934Z,99.90
2024-04-26T07:25:31.375Z,99.90
2024-04-26T07:31:00.030Z,99.90
2024-04-26T07:33:30.730Z,99.90
2024-04-26T07:36:01.848Z,99.90
2024-04-26T07:38:48.167Z,99.90
2024-04-26T07:41:17.970Z,99.90
2024-04-26T07:44:09.349Z,99.90
2024-04-26T07:46:41.639Z,99.90
2024-04-26T07:49:11.604Z,99.90
2024-04-26T07:54:48.472Z,99.90
2024-04-26T07:57:19.720Z,99.90
2024-04-26T07:59:58.738Z,99.90
2024-04-26T08:02:33.755Z,99.90
2024-04-26T08:05:11.782Z,99.90
2024-04-26T08:12:00.852Z,99.90
2024-04-26T08:14:41.195Z,99.90
2024-04-26T08:17:13.135Z,99.90
2024-04-26T08:19:46.394Z,99.90
2024-04-26T08:22:16.457Z,99.90
2024-04-26T08:24:54.980Z,99.90
2024-04-26T08:27:27.748Z,99.90
2024-04-26T08:29:58.036Z,99.90
2024-04-26T08:32:28.137Z,99.90
2024-04-26T08:35:00.897Z,99.90
2024-04-26T08:37:32.770Z,99.90
2024-04-26T08:40:16.605Z,99.60
2024-04-26T08:42:47.720Z,99.70
2024-04-26T08:45:21.302Z,99.80
2024-04-26T08:47:53.562Z,99.40
2024-04-26T08:50:29.183Z,99.40
2024-04-26T08:53:01.313Z,99.00
2024-04-26T08:55:33.281Z,98.30
2024-04-26T09:00:54.494Z,98.20
2024-04-26T09:03:32.467Z,97.70
2024-04-26T09:06:07.134Z,98.10
2024-04-26T09:08:37.138Z,97.70
2024-04-26T09:11:07.157Z,97.70
2024-04-26T09:13:39.260Z,97.60
2024-04-26T09:16:09.548Z,97.10
2024-04-26T09:18:40.835Z,96.80
2024-04-26T09:21:14.995Z,97.20
2024-04-26T09:23:46.698Z,96.80
2024-04-26T09:26:16.378Z,96.20
2024-04-26T09:28:48.556Z,96.00
2024-04-26T09:31:20.517Z,95.90
2024-04-26T09:33:55.722Z,95.30
2024-04-26T09:36:31.093Z,95.40
2024-04-26T09:39:01.915Z,95.40
2024-04-26T09:41:43.688Z,95.00
2024-04-26T09:44:18.297Z,94.80
2024-04-26T09:46:48.221Z,95.10
2024-04-26T09:49:18.143Z,94.40
2024-04-26T09:52:06.595Z,94.40
2024-04-26T09:54:37.915Z,94.70
2024-04-26T09:57:08.367Z,94.40
2024-04-26T09:59:38.470Z,93.80
2024-04-26T10:02:14.814Z,94.00
2024-04-26T10:05:07.340Z,94.30
2024-04-26T10:07:40.185Z,94.20
2024-04-26T10:10:18.317Z,93.20
2024-04-26T10:12:52.283Z,92.60
2024-04-26T10:15:22.951Z,92.80
2024-04-26T10:17:54.170Z,92.40
2024-04-26T10:20:28.410Z,92.50
2024-04-26T10:23:26.199Z,92.40
2024-04-26T10:26:10.769Z,90.70
2024-04-26T10:28:41.579Z,90.70
2024-04-26T10:31:26.958Z,90.30
2024-04-26T10:33:56.841Z,88.40
2024-04-26T10:36:26.738Z,87.20
2024-04-26T10:39:00.405Z,86.20
2024-04-26T10:41:30.505Z,84.30
2024-04-26T10:44:39.732Z,83.40
2024-04-26T10:47:11.243Z,83.60
2024-04-26T10:49:50.365Z,83.90
2024-04-26T10:52:24.957Z,79.80
2024-04-26T10:55:05.579Z,78.40
2024-04-26T10:57:37.550Z,79.80
2024-04-26T11:00:10.740Z,77.30
2024-04-26T11:02:40.789Z,76.00
2024-04-26T11:05:14.259Z,75.50
2024-04-26T11:07:56.671Z,76.10
2024-04-26T11:10:33.313Z,75.70
2024-04-26T11:13:03.204Z,74.30
2024-04-26T11:15:33.575Z,72.10
2024-04-26T11:18:04.058Z,72.90
2024-04-26T11:20:36.040Z,73.90
2024-04-26T11:23:07.919Z,73.90
2024-04-26T11:25:40.243Z,71.50
2024-04-26T11:28:10.023Z,72.00
2024-04-26T11:30:39.690Z,69.90
2024-04-26T11:33:28.153Z,69.60
2024-04-26T11:36:06.935Z,69.20
2024-04-26T11:38:36.847Z,66.80
2024-04-26T11:41:14.268Z,64.50
2024-04-26T11:43:45.533Z,60.90
2024-04-26T11:46:19.682Z,59.50
2024-04-26T11:48:50.276Z,57.40
2024-04-26T11:51:21.018Z,53.60
2024-04-26T11:54:05.429Z,52.60
2024-04-26T11:56:38.081Z,50.40
2024-04-26T11:59:15.008Z,47.30
2024-04-26T12:01:47.005Z,47.20
2024-04-26T12:04:17.270Z,45.60
2024-04-26T12:06:47.630Z,42.80
2024-04-26T12:09:17.468Z,41.40
2024-04-26T12:11:51.462Z,40.40
2024-04-26T12:14:22.197Z,41.20
2024-04-26T12:16:53.261Z,41.30
2024-04-26T12:19:23.054Z,40.80
2024-04-26T12:21:56.584Z,40.30
2024-04-26T12:24:27.112Z,40.30
2024-04-26T12:27:03.819Z,41.20
2024-04-26T12:29:34.324Z,42.40
2024-04-26T12:32:04.050Z,41.90
2024-04-26T12:34:34.951Z,43.60
2024-04-26T12:37:04.658Z,43.40
2024-04-26T12:39:36.195Z,44.00
2024-04-26T12:42:09.182Z,44.50
2024-04-26T12:44:44.089Z,45.10
2024-04-26T12:47:18.852Z,45.00
2024-04-26T12:49:48.550Z,44.70
2024-04-26T12:52:19.090Z,44.70
2024-04-26T12:54:49.092Z,44.80
2024-04-26T12:57:21.826Z,45.80
2024-04-26T12:59:51.870Z,47.00
2024-04-26T13:02:21.856Z,49.10
2024-04-26T13:04:51.578Z,47.60
2024-04-26T13:07:21.961Z,48.50
2024-04-26T13:09:54.903Z,49.10
2024-04-26T13:12:28.084Z,49.60
2024-04-26T13:14:59.405Z,47.50
2024-04-26T13:17:29.343Z,47.10
2024-04-26T13:20:02.169Z,46.50
2024-04-26T13:22:32.046Z,47.20
2024-04-26T13:25:01.942Z,45.90
2024-04-26T13:27:34.422Z,47.00
2024-04-26T13:30:04.367Z,47.70
2024-04-26T13:32:34.855Z,48.40
2024-04-26T13:35:05.949Z,47.20
2024-04-26T13:37:36.806Z,46.50
2024-04-26T13:40:07.842Z,46.60
2024-04-26T13:42:40.178Z,45.30
2024-04-26T13:45:11.048Z,45.00
2024-04-26T13:47:42.205Z,44.70
2024-04-26T13:50:13.226Z,45.00
2024-04-26T13:52:43.673Z,46.70
2024-04-26T13:55:13.907Z,47.90
2024-04-26T13:57:47.967Z,49.50
2024-04-26T14:00:19.255Z,51.30
2024-04-26T14:02:52.178Z,52.30
2024-04-26T14:05:22.136Z,53.40
2024-04-26T14:07:53.335Z,53.60
2024-04-26T14:10:23.052Z,54.30
2024-04-26T14:12:55.942Z,54.90
2024-04-26T14:15:26.848Z,54.30
2024-04-26T14:17:56.781Z,55.60
2024-04-26T14:20:26.703Z,55.20
2024-04-26T14:22:58.883Z,55.00
2024-04-26T14:25:28.780Z,54.90
2024-04-26T14:28:01.180Z,54.20
2024-04-26T14:30:31.128Z,53.10
2024-04-26T14:33:02.481Z,52.70
2024-04-26T14:35:32.839Z,51.60
2024-04-26T14:38:02.632Z,51.50
2024-04-26T14:40:34.975Z,52.60
2024-04-26T14:43:07.661Z,53.60
2024-04-26T14:45:38.524Z,55.60
2024-04-26T14:48:09.734Z,56.60
2024-04-26T14:50:42.288Z,57.50
2024-04-26T14:53:14.589Z,57.70
2024-04-26T14:55:44.978Z,58.80
2024-04-26T14:58:17.944Z,58.90
2024-04-26T15:00:47.918Z,57.80
2024-04-26T15:03:17.891Z,58.70
2024-04-26T15:05:47.707Z,58.00
2024-04-26T15:08:17.510Z,58.70
2024-04-26T15:10:47.303Z,59.60
2024-04-26T15:13:20.317Z,60.10
2024-04-26T15:15:50.685Z,60.90
2024-04-26T15:18:20.744Z,62.60
2024-04-26T15:20:50.485Z,62.40
2024-04-26T15:23:20.168Z,61.60
2024-04-26T15:25:50.530Z,62.50
2024-04-26T15:28:22.972Z,63.10
2024-04-26T15:30:53.219Z,63.50
2024-04-26T15:33:23.600Z,64.40
2024-04-26T15:35:53.395Z,65.20
2024-04-26T15:38:23.705Z,63.60
2024-04-26T15:40:56.029Z,64.60
2024-04-26T15:43:29.249Z,65.40
2024-04-26T15:45:59.251Z,65.20
2024-04-26T15:48:28.942Z,65.40
2024-04-26T15:50:59.553Z,65.30
2024-04-26T15:53:32.495Z,65.00
2024-04-26T15:56:08.570Z,65.80
2024-04-26T15:58:40.842Z,66.00
2024-04-26T16:01:21.294Z,66.40
2024-04-26T16:03:51.032Z,65.60
2024-04-26T16:06:22.106Z,66.20
2024-04-26T16:08:53.070Z,66.40
2024-04-26T16:11:23.037Z,65.30
2024-04-26T16:13:56.264Z,65.50
2024-04-26T16:16:28.301Z,64.70
2024-04-26T16:18:58.539Z,64.60
2024-04-26T16:21:28.377Z,66.10
2024-04-26T16:24:00.092Z,66.20
2024-04-26T16:26:31.852Z,65.20
2024-04-26T16:29:07.047Z,64.00
2024-04-26T16:31:36.786Z,63.90
2024-04-26T16:34:07.111Z,64.20
2024-04-26T16:36:37.646Z,63.60
2024-04-26T16:39:09.471Z,63.40
2024-04-26T16:41:39.795Z,61.90
2024-04-26T16:44:13.699Z,62.50
2024-04-26T16:46:43.813Z,63.30
2024-04-26T16:49:13.639Z,63.80
2024-04-26T16:51:45.997Z,63.60
2024-04-26T16:54:15.812Z,63.70
2024-04-26T16:56:46.794Z,64.30
2024-04-26T16:59:19.310Z,64.70
2024-04-26T17:01:50.179Z,65.40
2024-04-26T17:04:20.591Z,65.20
2024-04-26T17:06:50.280Z,67.50
2024-04-26T17:09:21.957Z,67.50
2024-04-26T17:11:52.303Z,68.20
2024-04-26T17:14:25.456Z,67.90
2024-04-26T17:16:55.431Z,67.50
2024-04-26T17:19:25.716Z,68.50
2024-04-26T17:21:55.577Z,68.60
2024-04-26T17:24:25.252Z,68.60
2024-04-26T17:26:58.571Z,68.70
2024-04-26T17:29:32.337Z,68.30
2024-04-26T17:32:03.765Z,68.40
2024-04-26T17:34:34.044Z,69.10
2024-04-26T17:37:03.934Z,69.10
2024-04-26T17:39:33.975Z,69.80
2024-04-26T17:42:06.689Z,70.70
2024-04-26T17:44:39.166Z,71.60
2024-04-26T17:47:10.362Z,71.20
2024-04-26T17:49:44.465Z,71.50
2024-04-26T17:52:16.173Z,72.10
2024-04-26T17:54:46.443Z,72.20
2024-04-26T17:57:17.891Z,73.00
2024-04-26T17:59:54.494Z,73.10
2024-04-26T18:02:25.268Z,73.10
2024-04-26T18:04:58.148Z,73.90
2024-04-26T18:07:29.919Z,74.10
2024-04-26T18:10:00.697Z,74.60
2024-04-26T18:12:32.900Z,75.10
2024-04-26T18:15:06.786Z,75.60
2024-04-26T18:17:37.084Z,76.10
2024-04-26T18:20:07.073Z,75.50
2024-04-26T18:22:38.840Z,76.40
2024-04-26T18:25:09.245Z,76.40
2024-04-26T18:27:39.915Z,77.30
2024-04-26T18:30:20.390Z,78.20
2024-04-26T18:32:51.844Z,78.00
2024-04-26T18:35:22.447Z,79.60
2024-04-26T18:37:52.368Z,79.40
2024-04-26T18:40:24.943Z,79.10
2024-04-26T18:42:55.210Z,78.80
2024-04-26T18:45:28.611Z,79.50
2024-04-26T18:48:00.951Z,80.10
2024-04-26T18:50:32.641Z,81.40
2024-04-26T18:53:05.101Z,81.60
2024-04-26T18:55:35.704Z,82.20
2024-04-26T18:58:07.400Z,82.00
2024-04-26T19:00:41.124Z,83.10
2024-04-26T19:03:11.322Z,83.10
2024-04-26T19:05:43.648Z,83.60
2024-04-26T19:08:13.768Z,83.40
2024-04-26T19:10:44.403Z,84.30
2024-04-26T19:13:18.391Z,84.90
2024-04-26T19:15:51.267Z,84.80
2024-04-26T19:18:21.043Z,85.70
2024-04-26T19:20:50.896Z,86.50
2024-04-26T19:23:20.769Z,86.70
2024-04-26T19:25:51.175Z,87.50
2024-04-26T19:28:21.732Z,87.80
2024-04-26T19:30:55.400Z,88.60
2024-04-26T19:33:26.136Z,88.70
2024-04-26T19:35:56.529Z,88.50
2024-04-26T19:38:30.913Z,89.80
2024-04-26T19:41:02.219Z,90.10
2024-04-26T19:43:33.489Z,90.40
2024-04-26T19:46:06.660Z,90.80
2024-04-26T19:48:38.085Z,91.10
2024-04-26T19:51:10.748Z,91.00
2024-04-26T19:53:56.452Z,91.60
2024-04-26T19:56:28.214Z,91.90
2024-04-26T19:58:59.292Z,91.90
2024-04-26T20:01:32.362Z,92.10
2024-04-26T20:04:02.603Z,92.50
2024-04-26T20:06:38.494Z,93.10
2024-04-26T20:09:08.964Z,93.80
2024-04-26T20:11:39.250Z,93.80
2024-04-26T20:14:13.629Z,93.80
2024-04-26T20:16:51.018Z,94.20
2024-04-26T20:19:58.300Z,94.60
2024-04-26T20:22:28.793Z,95.20
2024-04-26T20:24:58.582Z,95.30
2024-04-26T20:27:31.061Z,95.60
2024-04-26T20:30:01.033Z,95.90
2024-04-26T20:32:34.019Z,96.00
2024-04-26T20:35:03.980Z,96.70
2024-04-26T20:37:37.729Z,96.50
2024-04-26T20:40:08.677Z,97.20
2024-04-26T20:45:24.741Z,97.60
2024-04-26T20:47:58.141Z,97.90
2024-04-26T20:50:28.260Z,98.40
2024-04-26T20:53:02.431Z,98.70
2024-04-26T20:55:34.197Z,99.10
2024-04-26T20:58:05.283Z,99.30
2024-04-26T21:00:36.937Z,99.70
2024-04-26T21:03:12.389Z,99.90
2024-04-26T21:05:47.064Z,99.90
2024-04-26T21:08:17.714Z,99.90
2024-04-26T21:10:48.652Z,99.90
2024-04-26T21:13:18.630Z,99.90
2024-04-26T21:15:48.575Z,99.90
2024-04-26T21:18:21.127Z,99.90
2024-04-26T21:20:51.093Z,99.90
2024-04-26T21:23:20.953Z,99.90
2024-04-26T21:25:50.873Z,99.90
2024-04-26T21:28:20.733Z,99.90
2024-04-26T21:30:50.547Z,99.90
2024-04-26T21:33:24.872Z,99.90
2024-04-26T21:35:54.812Z,99.90
2024-04-26T21:38:38.098Z,99.90
2024-04-26T21:41:08.318Z,99.90
2024-04-26T21:43:39.465Z,99.90
2024-04-26T21:46:15.492Z,99.90
2024-04-26T21:48:52.510Z,99.90
2024-04-26T21:51:24.767Z,99.90
2024-04-26T21:54:07.834Z,99.90
2024-04-26T21:56:37.515Z,99.90
2024-04-26T21:59:14.317Z,99.90
2024-04-26T22:01:48.957Z,99.90
2024-04-26T22:07:11.923Z,99.90
2024-04-26T22:09:42.826Z,99.90
2024-04-26T22:12:14.234Z,99.90
2024-04-26T22:14:46.579Z,99.90
2024-04-26T22:17:17.072Z,99.90
2024-04-26T22:20:24.631Z,99.90
2024-04-26T22:22:56.410Z,99.90
2024-04-26T22:25:35.227Z,99.90
2024-04-26T22:28:40.931Z,99.90
2024-04-26T22:31:12.468Z,99.90
2024-04-26T22:33:43.338Z,99.90
2024-04-26T22:36:32.915Z,99.90
2024-04-26T22:39:03.331Z,99.90
2024-04-26T22:41:58.707Z,99.90
2024-04-26T22:44:29.156Z,99.90
2024-04-26T22:47:15.873Z,99.90
2024-04-26T22:49:47.188Z,99.90
2024-04-26T22:52:47.676Z,99.90
2024-04-26T22:55:33.040Z,99.90
2024-04-26T22:58:03.573Z,99.90
2024-04-26T23:00:39.182Z,99.90
2024-04-26T23:03:18.249Z,99.90
2024-04-26T23:05:52.851Z,99.90
2024-04-26T23:08:26.961Z,99.90
2024-04-26T23:10:59.576Z,99.90
2024-04-26T23:13:29.883Z,99.90
2024-04-26T23:16:00.883Z,99.90
2024-04-26T23:18:37.507Z,99.90
2024-04-26T23:21:08.223Z,99.90
2024-04-26T23:24:15.348Z,99.90
2024-04-26T23:26:46.823Z,99.90
2024-04-26T23:29:32.399Z,99.90
2024-04-26T23:32:02.465Z,99.90
2024-04-26T23:34:34.628Z,99.90
2024-04-26T23:37:04.724Z,99.90
2024-04-26T23:39:46.029Z,99.90
2024-04-26T23:42:16.959Z,99.90
2024-04-26T23:44:48.791Z,99.90
2024-04-26T23:47:21.268Z,99.90
2024-04-26T23:50:18.932Z,99.90
2024-04-26T23:52:49.122Z,99.90
2024-04-26T23:58:15.012Z,99.90
